sensor_id;sensor_type;location;lat;lon;timestamp;pressure;altitude;pressure_sealevel;temperature;humidity
12203;BME280;6164;42.178;24.622;2022-07-09T00:02:13;99351.34;;;19.49;100.00
12203;BME280;6164;42.178;24.622;2022-07-09T00:04:39;99354.28;;;19.47;100.00
12203;BME280;6164;42.178;24.622;2022-07-09T00:07:06;99356.47;;;19.39;100.00
12203;BME280;6164;42.178;24.622;2022-07-09T00:09:32;99353.13;;;19.43;100.00
12203;BME280;6164;42.178;24.622;2022-07-09T00:11:59;99345.56;;;19.40;100.00
12203;BME280;6164;42.178;24.622;2022-07-09T00:14:27;99339.84;;;19.37;100.00
12203;BME280;6164;42.178;24.622;2022-07-09T00:16:54;99323.88;;;19.30;100.00
12203;BME280;6164;42.178;24.622;2022-07-09T00:19:21;99315.84;;;19.30;100.00
12203;BME280;6164;42.178;24.622;2022-07-09T00:21:47;99326.88;;;19.22;100.00
12203;BME280;6164;42.178;24.622;2022-07-09T00:24:14;99321.72;;;19.21;100.00
12203;BME280;6164;42.178;24.622;2022-07-09T00:26:40;99318.38;;;19.25;100.00
12203;BME280;6164;42.178;24.622;2022-07-09T00:29:07;99319.50;;;19.18;100.00
12203;BME280;6164;42.178;24.622;2022-07-09T00:31:35;99324.72;;;19.13;100.00
12203;BME280;6164;42.178;24.622;2022-07-09T00:34:01;99329.16;;;19.07;100.00
12203;BME280;6164;42.178;24.622;2022-07-09T00:36:28;99331.03;;;19.18;100.00
12203;BME280;6164;42.178;24.622;2022-07-09T00:38:54;99327.41;;;19.13;100.00
12203;BME280;6164;42.178;24.622;2022-07-09T00:41:21;99329.84;;;19.14;100.00
12203;BME280;6164;42.178;24.622;2022-07-09T00:43:48;99328.13;;;19.20;100.00
12203;BME280;6164;42.178;24.622;2022-07-09T00:46:15;99326.03;;;19.10;100.00
12203;BME280;6164;42.178;24.622;2022-07-09T00:48:43;99327.41;;;19.13;100.00
12203;BME280;6164;42.178;24.622;2022-07-09T00:51:09;99307.28;;;19.10;100.00
12203;BME280;6164;42.178;24.622;2022-07-09T00:53:37;99320.44;;;19.12;100.00
12203;BME280;6164;42.178;24.622;2022-07-09T00:56:04;99304.84;;;19.09;100.00
12203;BME280;6164;42.178;24.622;2022-07-09T00:58:31;99315.41;;;19.04;100.00
12203;BME280;6164;42.178;24.622;2022-07-09T01:00:58;99306.34;;;19.05;100.00
12203;BME280;6164;42.178;24.622;2022-07-09T01:03:24;99304.94;;;19.02;100.00
12203;BME280;6164;42.178;24.622;2022-07-09T01:05:52;99292.03;;;18.99;100.00
12203;BME280;6164;42.178;24.622;2022-07-09T01:08:20;99297.81;;;18.96;100.00
12203;BME280;6164;42.178;24.622;2022-07-09T01:10:47;99285.88;;;18.99;100.00
12203;BME280;6164;42.178;24.622;2022-07-09T01:13:14;99290.16;;;19.00;100.00
12203;BME280;6164;42.178;24.622;2022-07-09T01:15:41;99296.78;;;18.97;100.00
12203;BME280;6164;42.178;24.622;2022-07-09T01:18:09;99294.38;;;19.07;100.00
12203;BME280;6164;42.178;24.622;2022-07-09T01:20:37;99305.63;;;19.09;100.00
12203;BME280;6164;42.178;24.622;2022-07-09T01:23:03;99310.31;;;19.14;100.00
12203;BME280;6164;42.178;24.622;2022-07-09T01:25:31;99315.81;;;19.19;100.00
12203;BME280;6164;42.178;24.622;2022-07-09T01:28:00;99317.56;;;19.25;100.00
12203;BME280;6164;42.178;24.622;2022-07-09T01:30:27;99317.47;;;19.31;100.00
12203;BME280;6164;42.178;24.622;2022-07-09T01:32:54;99313.06;;;19.37;100.00
12203;BME280;6164;42.178;24.622;2022-07-09T01:35:20;99314.69;;;19.38;100.00
12203;BME280;6164;42.178;24.622;2022-07-09T01:37:48;99307.66;;;19.14;100.00
12203;BME280;6164;42.178;24.622;2022-07-09T01:40:15;99310.91;;;19.16;100.00
12203;BME280;6164;42.178;24.622;2022-07-09T01:42:42;99307.66;;;19.14;100.00
12203;BME280;6164;42.178;24.622;2022-07-09T01:45:08;99320.81;;;19.15;100.00
12203;BME280;6164;42.178;24.622;2022-07-09T01:47:35;99320.56;;;19.17;100.00
12203;BME280;6164;42.178;24.622;2022-07-09T01:50:02;99331.41;;;19.22;100.00
12203;BME280;6164;42.178;24.622;2022-07-09T01:52:28;99335.34;;;19.19;100.00
12203;BME280;6164;42.178;24.622;2022-07-09T01:54:56;99325.69;;;19.18;100.00
12203;BME280;6164;42.178;24.622;2022-07-09T01:57:23;99326.88;;;19.22;100.00
12203;BME280;6164;42.178;24.622;2022-07-09T01:59:49;99323.97;;;19.24;100.00
12203;BME280;6164;42.178;24.622;2022-07-09T02:02:16;99325.34;;;19.26;100.00
12203;BME280;6164;42.178;24.622;2022-07-09T02:04:42;99322.22;;;19.29;100.00
12203;BME280;6164;42.178;24.622;2022-07-09T02:07:10;99329.25;;;19.30;100.00
12203;BME280;6164;42.178;24.622;2022-07-09T02:09:37;99319.22;;;19.37;100.00
12203;BME280;6164;42.178;24.622;2022-07-09T02:12:05;99315.75;;;19.48;100.00
12203;BME280;6164;42.178;24.622;2022-07-09T02:14:32;99318.91;;;19.57;100.00
12203;BME280;6164;42.178;24.622;2022-07-09T02:16:58;99318.19;;;19.61;100.00
12203;BME280;6164;42.178;24.622;2022-07-09T02:19:25;99310.88;;;19.69;100.00
12203;BME280;6164;42.178;24.622;2022-07-09T02:21:51;99302.72;;;19.75;100.00
12203;BME280;6164;42.178;24.622;2022-07-09T02:24:18;99302.34;;;19.83;100.00
12203;BME280;6164;42.178;24.622;2022-07-09T02:26:45;99308.88;;;19.87;100.00
12203;BME280;6164;42.178;24.622;2022-07-09T02:29:13;99302.59;;;19.93;100.00
12203;BME280;6164;42.178;24.622;2022-07-09T02:31:39;99309.78;;;19.93;100.00
12203;BME280;6164;42.178;24.622;2022-07-09T02:34:06;99304.44;;;19.93;100.00
12203;BME280;6164;42.178;24.622;2022-07-09T02:36:32;99298.03;;;19.94;100.00
12203;BME280;6164;42.178;24.622;2022-07-09T02:38:59;99298.50;;;19.91;100.00
12203;BME280;6164;42.178;24.622;2022-07-09T02:41:25;99303.63;;;19.92;100.00
12203;BME280;6164;42.178;24.622;2022-07-09T02:43:52;99303.03;;;19.90;100.00
12203;BME280;6164;42.178;24.622;2022-07-09T02:46:19;99306.53;;;19.91;100.00
12203;BME280;6164;42.178;24.622;2022-07-09T02:48:46;99307.00;;;19.88;100.00
12203;BME280;6164;42.178;24.622;2022-07-09T02:51:12;99312.25;;;19.83;100.00
12203;BME280;6164;42.178;24.622;2022-07-09T02:53:39;99298.63;;;19.84;100.00
12203;BME280;6164;42.178;24.622;2022-07-09T02:56:06;99301.88;;;19.86;100.00
12203;BME280;6164;42.178;24.622;2022-07-09T02:58:32;99301.66;;;19.88;100.00
12203;BME280;6164;42.178;24.622;2022-07-09T03:00:59;99295.47;;;19.87;100.00
12203;BME280;6164;42.178;24.622;2022-07-09T03:03:27;99299.34;;;19.80;100.00
12203;BME280;6164;42.178;24.622;2022-07-09T03:05:53;99296.78;;;19.73;100.00
12203;BME280;6164;42.178;24.622;2022-07-09T03:08:19;99296.06;;;19.66;100.00
12203;BME280;6164;42.178;24.622;2022-07-09T03:10:47;99291.06;;;19.58;100.00
12203;BME280;6164;42.178;24.622;2022-07-09T03:13:13;99286.97;;;19.55;100.00
12203;BME280;6164;42.178;24.622;2022-07-09T03:15:40;99293.88;;;19.51;100.00
12203;BME280;6164;42.178;24.622;2022-07-09T03:18:06;99288.16;;;19.48;100.00
12203;BME280;6164;42.178;24.622;2022-07-09T03:20:34;99296.44;;;19.46;100.00
12203;BME280;6164;42.178;24.622;2022-07-09T03:23:01;99296.19;;;19.48;100.00
12203;BME280;6164;42.178;24.622;2022-07-09T03:25:28;99293.03;;;19.51;100.00
12203;BME280;6164;42.178;24.622;2022-07-09T03:27:54;99295.00;;;19.55;100.00
12203;BME280;6164;42.178;24.622;2022-07-09T03:30:21;99292.47;;;19.60;100.00
12203;BME280;6164;42.178;24.622;2022-07-09T03:32:48;99290.59;;;19.61;100.00
12203;BME280;6164;42.178;24.622;2022-07-09T03:35:15;99296.53;;;19.63;100.00
12203;BME280;6164;42.178;24.622;2022-07-09T03:37:42;99289.34;;;19.75;100.00
12203;BME280;6164;42.178;24.622;2022-07-09T03:40:09;99286.75;;;19.80;100.00
12203;BME280;6164;42.178;24.622;2022-07-09T03:42:36;99284.41;;;19.84;100.00
12203;BME280;6164;42.178;24.622;2022-07-09T03:45:02;99290.47;;;19.79;100.00
12203;BME280;6164;42.178;24.622;2022-07-09T03:47:29;99284.28;;;19.90;100.00
12203;BME280;6164;42.178;24.622;2022-07-09T03:49:55;99283.25;;;19.80;100.00
12203;BME280;6164;42.178;24.622;2022-07-09T03:52:24;99294.88;;;19.85;100.00
12203;BME280;6164;42.178;24.622;2022-07-09T03:54:52;99292.56;;;19.89;100.00
12203;BME280;6164;42.178;24.622;2022-07-09T03:57:18;99295.22;;;20.00;100.00
12203;BME280;6164;42.178;24.622;2022-07-09T03:59:45;99295.44;;;19.99;100.00
12203;BME280;6164;42.178;24.622;2022-07-09T04:02:11;99298.72;;;20.01;100.00
12203;BME280;6164;42.178;24.622;2022-07-09T04:04:38;99303.72;;;19.97;100.00
12203;BME280;6164;42.178;24.622;2022-07-09T04:07:04;99301.75;;;20.04;100.00
12203;BME280;6164;42.178;24.622;2022-07-09T04:09:31;99297.75;;;20.07;100.00
12203;BME280;6164;42.178;24.622;2022-07-09T04:11:59;99304.28;;;20.11;100.00
12203;BME280;6164;42.178;24.622;2022-07-09T04:14:25;99303.72;;;20.09;100.00
12203;BME280;6164;42.178;24.622;2022-07-09T04:16:52;99297.63;;;20.13;100.00
12203;BME280;6164;42.178;24.622;2022-07-09T04:19:18;99303.94;;;20.19;100.00
12203;BME280;6164;42.178;24.622;2022-07-09T04:21:45;99304.06;;;20.24;100.00
12203;BME280;6164;42.178;24.622;2022-07-09T04:24:11;99311.97;;;20.30;100.00
12203;BME280;6164;42.178;24.622;2022-07-09T04:26:40;99310.59;;;20.28;100.00
12203;BME280;6164;42.178;24.622;2022-07-09T04:29:08;99307.53;;;20.36;100.00
12203;BME280;6164;42.178;24.622;2022-07-09T04:31:35;99302.03;;;20.42;100.00
12203;BME280;6164;42.178;24.622;2022-07-09T04:34:02;99301.06;;;20.48;100.00
12203;BME280;6164;42.178;24.622;2022-07-09T04:36:28;99311.00;;;20.36;100.00
12203;BME280;6164;42.178;24.622;2022-07-09T04:38:56;99310.66;;;20.44;100.00
12203;BME280;6164;42.178;24.622;2022-07-09T04:41:23;99295.00;;;20.41;100.00
12203;BME280;6164;42.178;24.622;2022-07-09T04:43:49;99302.03;;;20.42;100.00
12203;BME280;6164;42.178;24.622;2022-07-09T04:46:17;99301.50;;;20.57;100.00
12203;BME280;6164;42.178;24.622;2022-07-09T04:48:45;99301.94;;;20.65;100.00
12203;BME280;6164;42.178;24.622;2022-07-09T04:51:12;99297.47;;;20.71;100.00
12203;BME280;6164;42.178;24.622;2022-07-09T04:53:38;99297.00;;;20.74;100.00
12203;BME280;6164;42.178;24.622;2022-07-09T04:56:05;99286.97;;;20.69;100.00
12203;BME280;6164;42.178;24.622;2022-07-09T04:58:32;99293.16;;;20.70;100.00
12203;BME280;6164;42.178;24.622;2022-07-09T05:00:58;99301.88;;;20.77;100.00
12203;BME280;6164;42.178;24.622;2022-07-09T05:03:26;99298.47;;;20.81;100.00
12203;BME280;6164;42.178;24.622;2022-07-09T05:05:53;99292.63;;;20.84;100.00
12203;BME280;6164;42.178;24.622;2022-07-09T05:08:20;99294.66;;;20.94;100.00
12203;BME280;6164;42.178;24.622;2022-07-09T05:10:46;99293.19;;;20.86;100.00
12203;BME280;6164;42.178;24.622;2022-07-09T05:13:13;99298.28;;;21.00;100.00
12203;BME280;6164;42.178;24.622;2022-07-09T05:15:39;99288.53;;;21.10;100.00
12203;BME280;6164;42.178;24.622;2022-07-09T05:18:06;99297.31;;;21.22;100.00
12203;BME280;6164;42.178;24.622;2022-07-09T05:20:33;99303.00;;;21.26;100.00
12203;BME280;6164;42.178;24.622;2022-07-09T05:23:00;99295.53;;;21.28;100.00
12203;BME280;6164;42.178;24.622;2022-07-09T05:25:26;99299.91;;;21.34;100.00
12203;BME280;6164;42.178;24.622;2022-07-09T05:27:53;99295.78;;;21.43;100.00
12203;BME280;6164;42.178;24.622;2022-07-09T05:30:19;99299.34;;;21.48;100.00
12203;BME280;6164;42.178;24.622;2022-07-09T05:32:46;99296.97;;;21.52;100.00
12203;BME280;6164;42.178;24.622;2022-07-09T05:35:12;99297.38;;;21.60;100.00
12203;BME280;6164;42.178;24.622;2022-07-09T05:37:44;99300.97;;;21.66;100.00
12203;BME280;6164;42.178;24.622;2022-07-09T05:40:10;99303.72;;;21.71;100.00
12203;BME280;6164;42.178;24.622;2022-07-09T05:42:37;99295.66;;;21.71;100.00
12203;BME280;6164;42.178;24.622;2022-07-09T05:45:04;99300.41;;;21.80;100.00
12203;BME280;6164;42.178;24.622;2022-07-09T05:47:31;99286.22;;;21.68;100.00
12203;BME280;6164;42.178;24.622;2022-07-09T05:50:01;99297.72;;;21.80;100.00
12203;BME280;6164;42.178;24.622;2022-07-09T05:52:27;99297.47;;;21.82;100.00
12203;BME280;6164;42.178;24.622;2022-07-09T05:54:55;99293.53;;;21.89;100.00
12203;BME280;6164;42.178;24.622;2022-07-09T05:57:22;99292.91;;;21.82;100.00
12203;BME280;6164;42.178;24.622;2022-07-09T05:59:48;99283.53;;;21.85;100.00
12203;BME280;6164;42.178;24.622;2022-07-09T06:02:15;99278.78;;;21.92;100.00
12203;BME280;6164;42.178;24.622;2022-07-09T06:04:42;99281.78;;;21.95;100.00
12203;BME280;6164;42.178;24.622;2022-07-09T06:07:08;99283.41;;;21.96;100.00
12203;BME280;6164;42.178;24.622;2022-07-09T06:09:35;99278.03;;;21.96;100.00
12203;BME280;6164;42.178;24.622;2022-07-09T06:12:04;99277.91;;;22.08;100.00
12203;BME280;6164;42.178;24.622;2022-07-09T06:14:30;99278.22;;;22.11;100.00
12203;BME280;6164;42.178;24.622;2022-07-09T06:16:57;99277.91;;;22.08;100.00
12203;BME280;6164;42.178;24.622;2022-07-09T06:19:30;99278.41;;;22.05;100.00
12203;BME280;6164;42.178;24.622;2022-07-09T06:21:57;99278.56;;;22.15;100.00
12203;BME280;6164;42.178;24.622;2022-07-09T06:24:23;99277.47;;;22.16;100.00
12203;BME280;6164;42.178;24.622;2022-07-09T06:26:50;99287.56;;;22.26;100.00
12203;BME280;6164;42.178;24.622;2022-07-09T06:29:17;99273.47;;;22.40;100.00
12203;BME280;6164;42.178;24.622;2022-07-09T06:31:44;99281.97;;;22.54;100.00
12203;BME280;6164;42.178;24.622;2022-07-09T06:34:10;99267.63;;;22.48;100.00
12203;BME280;6164;42.178;24.622;2022-07-09T06:36:37;99265.09;;;22.58;100.00
12203;BME280;6164;42.178;24.622;2022-07-09T06:39:03;99267.91;;;22.47;100.00
12203;BME280;6164;42.178;24.622;2022-07-09T06:41:47;99257.94;;;22.47;100.00
12203;BME280;6164;42.178;24.622;2022-07-09T06:44:14;99256.06;;;22.48;99.95
12203;BME280;6164;42.178;24.622;2022-07-09T06:46:42;99253.88;;;22.45;100.00
12203;BME280;6164;42.178;24.622;2022-07-09T06:49:08;99253.38;;;22.48;99.47
12203;BME280;6164;42.178;24.622;2022-07-09T06:51:38;99248.13;;;22.58;100.00
12203;BME280;6164;42.178;24.622;2022-07-09T06:54:04;99244.97;;;22.66;99.85
12203;BME280;6164;42.178;24.622;2022-07-09T06:56:31;99250.41;;;22.71;99.39
12203;BME280;6164;42.178;24.622;2022-07-09T06:58:57;99246.19;;;22.80;99.57
12203;BME280;6164;42.178;24.622;2022-07-09T07:01:24;99246.47;;;22.83;98.86
12203;BME280;6164;42.178;24.622;2022-07-09T07:03:51;99243.94;;;22.98;100.00
12203;BME280;6164;42.178;24.622;2022-07-09T07:06:18;99243.72;;;23.05;99.24
12203;BME280;6164;42.178;24.622;2022-07-09T07:08:44;99243.53;;;23.16;98.25
12203;BME280;6164;42.178;24.622;2022-07-09T07:11:11;99243.38;;;23.28;96.98
12203;BME280;6164;42.178;24.622;2022-07-09T07:13:37;99236.41;;;23.32;97.13
12203;BME280;6164;42.178;24.622;2022-07-09T07:16:04;99241.34;;;23.45;97.57
12203;BME280;6164;42.178;24.622;2022-07-09T07:18:31;99237.06;;;23.49;98.89
12203;BME280;6164;42.178;24.622;2022-07-09T07:20:59;99238.47;;;23.57;96.81
12203;BME280;6164;42.178;24.622;2022-07-09T07:23:25;99238.16;;;23.53;94.59
12203;BME280;6164;42.178;24.622;2022-07-09T07:25:52;99250.34;;;23.61;93.91
12203;BME280;6164;42.178;24.622;2022-07-09T07:28:18;99245.56;;;23.73;95.28
12203;BME280;6164;42.178;24.622;2022-07-09T07:30:45;99244.78;;;23.77;91.42
12203;BME280;6164;42.178;24.622;2022-07-09T07:33:11;99243.19;;;23.86;91.13
12203;BME280;6164;42.178;24.622;2022-07-09T07:35:38;99251.88;;;23.93;89.63
12203;BME280;6164;42.178;24.622;2022-07-09T07:38:05;99254.13;;;24.11;90.00
12203;BME280;6164;42.178;24.622;2022-07-09T07:40:32;99243.69;;;24.25;87.00
12203;BME280;6164;42.178;24.622;2022-07-09T07:42:58;99245.88;;;24.43;86.09
12203;BME280;6164;42.178;24.622;2022-07-09T07:45:25;99248.06;;;24.51;81.73
12203;BME280;6164;42.178;24.622;2022-07-09T07:47:51;99256.19;;;24.61;80.72
12203;BME280;6164;42.178;24.622;2022-07-09T07:50:19;99252.66;;;24.55;78.41
12203;BME280;6164;42.178;24.622;2022-07-09T07:52:46;99253.53;;;24.71;77.59
12203;BME280;6164;42.178;24.622;2022-07-09T07:55:14;99262.44;;;24.87;72.86
12203;BME280;6164;42.178;24.622;2022-07-09T07:57:40;99258.66;;;25.03;72.89
12203;BME280;6164;42.178;24.622;2022-07-09T08:00:07;99257.59;;;25.19;73.38
12203;BME280;6164;42.178;24.622;2022-07-09T08:02:34;99259.75;;;25.22;72.45
12203;BME280;6164;42.178;24.622;2022-07-09T08:05:01;99264.63;;;25.25;71.40
12203;BME280;6164;42.178;24.622;2022-07-09T08:07:27;99258.66;;;25.28;70.47
12203;BME280;6164;42.178;24.622;2022-07-09T08:09:54;99257.88;;;25.37;71.02
12203;BME280;6164;42.178;24.622;2022-07-09T08:12:22;99249.50;;;25.39;70.79
12203;BME280;6164;42.178;24.622;2022-07-09T08:14:48;99249.47;;;25.59;74.90
12203;BME280;6164;42.178;24.622;2022-07-09T08:17:15;99251.59;;;25.77;74.35
12203;BME280;6164;42.178;24.622;2022-07-09T08:19:41;99253.44;;;25.86;70.06
12203;BME280;6164;42.178;24.622;2022-07-09T08:22:08;99258.03;;;25.96;70.59
12203;BME280;6164;42.178;24.622;2022-07-09T08:24:34;99249.63;;;26.13;72.52
12203;BME280;6164;42.178;24.622;2022-07-09T08:27:01;99249.94;;;26.01;67.80
12203;BME280;6164;42.178;24.622;2022-07-09T08:29:29;99241.25;;;25.99;68.11
12203;BME280;6164;42.178;24.622;2022-07-09T08:31:55;99242.56;;;26.12;70.59
12203;BME280;6164;42.178;24.622;2022-07-09T08:34:22;99246.06;;;26.17;65.09
12203;BME280;6164;42.178;24.622;2022-07-09T08:36:48;99243.63;;;26.21;66.40
12203;BME280;6164;42.178;24.622;2022-07-09T08:39:15;99255.31;;;26.11;63.12
12203;BME280;6164;42.178;24.622;2022-07-09T08:41:42;99252.03;;;26.14;61.93
12203;BME280;6164;42.178;24.622;2022-07-09T08:44:10;99255.31;;;26.11;58.79
12203;BME280;6164;42.178;24.622;2022-07-09T08:46:38;99251.22;;;26.14;58.96
12203;BME280;6164;42.178;24.622;2022-07-09T08:49:04;99253.63;;;26.20;58.51
12203;BME280;6164;42.178;24.622;2022-07-09T08:51:31;99255.22;;;26.26;55.20
12203;BME280;6164;42.178;24.622;2022-07-09T08:53:58;99256.53;;;26.34;55.31
12203;BME280;6164;42.178;24.622;2022-07-09T08:56:26;99257.09;;;26.31;56.99
12203;BME280;6164;42.178;24.622;2022-07-09T08:58:53;99258.44;;;26.33;55.38
12203;BME280;6164;42.178;24.622;2022-07-09T09:01:19;99244.72;;;26.15;54.90
12203;BME280;6164;42.178;24.622;2022-07-09T09:03:47;99243.94;;;25.99;56.59
12203;BME280;6164;42.178;24.622;2022-07-09T09:06:14;99239.13;;;25.91;60.78
12203;BME280;6164;42.178;24.622;2022-07-09T09:08:41;99242.94;;;25.75;63.31
12203;BME280;6164;42.178;24.622;2022-07-09T09:11:08;99233.50;;;25.72;66.86
12203;BME280;6164;42.178;24.622;2022-07-09T09:13:39;99241.59;;;25.77;65.00
12203;BME280;6164;42.178;24.622;2022-07-09T09:16:06;99246.19;;;25.67;63.18
12203;BME280;6164;42.178;24.622;2022-07-09T09:18:34;99235.13;;;25.63;66.31
12203;BME280;6164;42.178;24.622;2022-07-09T09:21:05;99232.72;;;25.52;66.71
12203;BME280;6164;42.178;24.622;2022-07-09T09:23:39;99244.63;;;25.51;65.64
12203;BME280;6164;42.178;24.622;2022-07-09T09:26:12;99237.59;;;25.55;64.67
12203;BME280;6164;42.178;24.622;2022-07-09T09:28:45;99246.22;;;25.57;63.17
12203;BME280;6164;42.178;24.622;2022-07-09T09:31:19;99242.44;;;25.58;66.79
12203;BME280;6164;42.178;24.622;2022-07-09T09:33:46;99245.97;;;25.53;68.31
12203;BME280;6164;42.178;24.622;2022-07-09T09:36:27;99247.03;;;25.57;68.44
12203;BME280;6164;42.178;24.622;2022-07-09T09:38:54;99245.41;;;25.66;68.44
12203;BME280;6164;42.178;24.622;2022-07-09T09:41:21;99239.97;;;25.76;66.68
12203;BME280;6164;42.178;24.622;2022-07-09T09:43:48;99246.72;;;25.79;65.12
12203;BME280;6164;42.178;24.622;2022-07-09T09:46:14;99246.44;;;25.80;63.96
12203;BME280;6164;42.178;24.622;2022-07-09T09:48:41;99246.44;;;25.80;63.92
12203;BME280;6164;42.178;24.622;2022-07-09T09:51:08;99240.75;;;25.82;65.28
12203;BME280;6164;42.178;24.622;2022-07-09T09:53:37;99238.00;;;25.92;63.79
12203;BME280;6164;42.178;24.622;2022-07-09T09:56:05;99238.81;;;26.03;66.35
12203;BME280;6164;42.178;24.622;2022-07-09T09:58:31;99244.22;;;26.08;65.51
12203;BME280;6164;42.178;24.622;2022-07-09T10:00:58;99243.41;;;26.07;66.70
12203;BME280;6164;42.178;24.622;2022-07-09T10:03:25;99238.53;;;26.09;67.26
12203;BME280;6164;42.178;24.622;2022-07-09T10:05:51;99240.16;;;26.05;67.55
12203;BME280;6164;42.178;24.622;2022-07-09T10:08:18;99235.81;;;26.09;66.06
12203;BME280;6164;42.178;24.622;2022-07-09T10:10:50;99234.19;;;26.08;66.63
12203;BME280;6164;42.178;24.622;2022-07-09T10:13:19;99227.41;;;26.16;65.57
12203;BME280;6164;42.178;24.622;2022-07-09T10:15:47;99226.28;;;26.22;67.48
12203;BME280;6164;42.178;24.622;2022-07-09T10:18:16;99229.84;;;26.17;66.28
12203;BME280;6164;42.178;24.622;2022-07-09T10:20:43;99225.75;;;26.15;65.67
12203;BME280;6164;42.178;24.622;2022-07-09T10:23:19;99224.72;;;26.11;68.22
12203;BME280;6164;42.178;24.622;2022-07-09T10:25:46;99221.16;;;26.20;66.55
12203;BME280;6164;42.178;24.622;2022-07-09T10:28:17;99233.59;;;26.16;66.56
12203;BME280;6164;42.178;24.622;2022-07-09T10:30:44;99227.41;;;26.16;65.30
12203;BME280;6164;42.178;24.622;2022-07-09T10:33:11;99232.78;;;26.26;65.64
12203;BME280;6164;42.178;24.622;2022-07-09T10:35:41;99225.72;;;26.25;65.82
12203;BME280;6164;42.178;24.622;2022-07-09T10:38:08;99232.47;;;26.32;66.76
12203;BME280;6164;42.178;24.622;2022-07-09T10:40:38;99225.66;;;26.35;64.70
12203;BME280;6164;42.178;24.622;2022-07-09T10:43:05;99229.50;;;26.29;65.23
12203;BME280;6164;42.178;24.622;2022-07-09T10:45:40;99225.72;;;26.25;65.75
12203;BME280;6164;42.178;24.622;2022-07-09T10:48:07;99225.72;;;26.25;65.94
12203;BME280;6164;42.178;24.622;2022-07-09T10:50:36;99219.19;;;26.36;65.92
12203;BME280;6164;42.178;24.622;2022-07-09T10:53:03;99227.34;;;26.31;64.23
12203;BME280;6164;42.178;24.622;2022-07-09T10:55:30;99226.03;;;26.18;64.03
12203;BME280;6164;42.178;24.622;2022-07-09T10:57:57;99219.84;;;26.13;65.02
12203;BME280;6164;42.178;24.622;2022-07-09T11:00:24;99224.97;;;26.19;66.73
12203;BME280;6164;42.178;24.622;2022-07-09T11:02:56;99220.91;;;26.17;66.56
12203;BME280;6164;42.178;24.622;2022-07-09T11:05:23;99223.28;;;26.23;63.71
12203;BME280;6164;42.178;24.622;2022-07-09T11:07:54;99225.41;;;26.31;62.95
12203;BME280;6164;42.178;24.622;2022-07-09T11:10:20;99231.03;;;26.45;60.08
12203;BME280;6164;42.178;24.622;2022-07-09T11:12:47;99226.09;;;26.57;59.37
12203;BME280;6164;42.178;24.622;2022-07-09T11:15:16;99225.88;;;26.48;60.21
12203;BME280;6164;42.178;24.622;2022-07-09T11:17:42;99219.41;;;26.39;61.25
12203;BME280;6164;42.178;24.622;2022-07-09T11:20:11;99223.84;;;26.20;58.43
12203;BME280;6164;42.178;24.622;2022-07-09T11:22:37;99225.00;;;25.99;61.18
12203;BME280;6164;42.178;24.622;2022-07-09T11:25:04;99228.63;;;25.69;62.74
12203;BME280;6164;42.178;24.622;2022-07-09T11:27:31;99228.13;;;25.57;62.60
12203;BME280;6164;42.178;24.622;2022-07-09T11:30:01;99224.09;;;25.25;64.50
12203;BME280;6164;42.178;24.622;2022-07-09T11:32:29;99218.69;;;25.10;65.56
12203;BME280;6164;42.178;24.622;2022-07-09T11:34:56;99222.50;;;25.04;64.76
12203;BME280;6164;42.178;24.622;2022-07-09T11:37:24;99219.25;;;24.82;63.19
12203;BME280;6164;42.178;24.622;2022-07-09T11:39:51;99216.81;;;24.90;65.92
12203;BME280;6164;42.178;24.622;2022-07-09T11:42:18;99212.50;;;24.79;64.50
12203;BME280;6164;42.178;24.622;2022-07-09T11:44:52;99206.78;;;24.65;66.38
12203;BME280;6164;42.178;24.622;2022-07-09T11:47:19;99210.59;;;24.80;68.50
12203;BME280;6164;42.178;24.622;2022-07-09T11:49:48;99204.13;;;24.91;67.51
12203;BME280;6164;42.178;24.622;2022-07-09T11:52:16;99214.66;;;24.92;67.31
12203;BME280;6164;42.178;24.622;2022-07-09T11:54:55;99223.81;;;25.01;68.18
12203;BME280;6164;42.178;24.622;2022-07-09T11:57:21;99221.41;;;24.90;67.61
12203;BME280;6164;42.178;24.622;2022-07-09T11:59:48;99218.97;;;24.98;70.16
12203;BME280;6164;42.178;24.622;2022-07-09T12:02:22;99216.28;;;25.13;70.98
12203;BME280;6164;42.178;24.622;2022-07-09T12:04:48;99212.25;;;25.06;69.35
12203;BME280;6164;42.178;24.622;2022-07-09T12:07:15;99209.53;;;25.01;69.54
12203;BME280;6164;42.178;24.622;2022-07-09T12:09:41;99207.34;;;24.88;69.79
12203;BME280;6164;42.178;24.622;2022-07-09T12:12:09;99214.94;;;24.76;70.54
12203;BME280;6164;42.178;24.622;2022-07-09T12:14:36;99208.38;;;24.61;71.50
12203;BME280;6164;42.178;24.622;2022-07-09T12:17:02;99203.81;;;24.62;73.81
12203;BME280;6164;42.178;24.622;2022-07-09T12:19:29;99204.59;;;24.52;75.20
12203;BME280;6164;42.178;24.622;2022-07-09T12:21:55;99206.22;;;24.48;76.55
12203;BME280;6164;42.178;24.622;2022-07-09T12:24:22;99215.63;;;24.31;76.24
12203;BME280;6164;42.178;24.622;2022-07-09T12:26:48;99216.63;;;24.05;77.10
12203;BME280;6164;42.178;24.622;2022-07-09T12:29:16;99218.97;;;23.91;76.81
12203;BME280;6164;42.178;24.622;2022-07-09T12:31:43;99224.59;;;23.85;74.53
12203;BME280;6164;42.178;24.622;2022-07-09T12:34:09;99221.50;;;23.61;76.14
12203;BME280;6164;42.178;24.622;2022-07-09T12:36:36;99222.28;;;23.57;75.54
12203;BME280;6164;42.178;24.622;2022-07-09T12:39:03;99211.78;;;23.55;77.55
12203;BME280;6164;42.178;24.622;2022-07-09T12:41:30;99211.50;;;23.57;76.83
12203;BME280;6164;42.178;24.622;2022-07-09T12:43:56;99207.47;;;23.59;77.43
12203;BME280;6164;42.178;24.622;2022-07-09T12:46:24;99212.63;;;23.61;77.72
12203;BME280;6164;42.178;24.622;2022-07-09T12:48:51;99213.34;;;23.51;78.04
12203;BME280;6164;42.178;24.622;2022-07-09T12:51:17;99212.56;;;23.51;78.93
12203;BME280;6164;42.178;24.622;2022-07-09T12:53:43;99213.91;;;23.53;78.37
12203;BME280;6164;42.178;24.622;2022-07-09T12:56:10;99217.97;;;23.51;77.42